sensor_id;sensor_type;location;lat;lon;timestamp;pressure;altitude;pressure_sealevel;temperature;humidity
24858;BME280;12935;50.782;6.074;2022-09-13T00:01:15;98989.03;;;18.51;96.71
24858;BME280;12935;50.782;6.074;2022-09-13T00:03:40;98982.91;;;18.56;96.19
24858;BME280;12935;50.782;6.074;2022-09-13T00:06:15;98977.84;;;18.64;96.44
24858;BME280;12935;50.782;6.074;2022-09-13T00:08:41;98983.97;;;18.59;96.89
24858;BME280;12935;50.782;6.074;2022-09-13T00:11:14;98985.03;;;18.52;98.80
24858;BME280;12935;50.782;6.074;2022-09-13T00:13:40;98984.88;;;18.47;98.62
24858;BME280;12935;50.782;6.074;2022-09-13T00:16:10;98998.59;;;18.60;97.50
24858;BME280;12935;50.782;6.074;2022-09-13T00:18:36;98995.06;;;18.68;96.50
24858;BME280;12935;50.782;6.074;2022-09-13T00:21:10;98997.50;;;18.75;97.10
24858;BME280;12935;50.782;6.074;2022-09-13T00:23:36;98989.81;;;18.79;96.04
24858;BME280;12935;50.782;6.074;2022-09-13T00:26:03;98989.97;;;18.76;95.69
24858;BME280;12935;50.782;6.074;2022-09-13T00:28:28;99000.59;;;18.68;96.08
24858;BME280;12935;50.782;6.074;2022-09-13T00:30:54;99000.91;;;18.79;94.86
24858;BME280;12935;50.782;6.074;2022-09-13T00:33:19;98995.22;;;18.83;94.18
24858;BME280;12935;50.782;6.074;2022-09-13T00:35:44;98999.22;;;18.73;98.87
24858;BME280;12935;50.782;6.074;2022-09-13T00:38:09;98992.28;;;18.77;97.56
24858;BME280;12935;50.782;6.074;2022-09-13T00:40:38;98983.53;;;18.79;97.42
24858;BME280;12935;50.782;6.074;2022-09-13T00:43:03;98983.22;;;18.77;97.42
24858;BME280;12935;50.782;6.074;2022-09-13T00:45:30;98981.84;;;18.81;96.84
24858;BME280;12935;50.782;6.074;2022-09-13T00:48:01;98985.53;;;18.87;95.76
24858;BME280;12935;50.782;6.074;2022-09-13T00:53:01;98978.47;;;18.86;95.52
24858;BME280;12935;50.782;6.074;2022-09-13T00:55:35;98979.38;;;18.83;95.25
24858;BME280;12935;50.782;6.074;2022-09-13T00:58:06;98982.00;;;18.87;94.69
24858;BME280;12935;50.782;6.074;2022-09-13T01:00:32;98980.91;;;18.84;93.08
24858;BME280;12935;50.782;6.074;2022-09-13T01:02:59;98979.06;;;18.81;93.71
24858;BME280;12935;50.782;6.074;2022-09-13T01:05:32;98976.00;;;18.79;93.61
24858;BME280;12935;50.782;6.074;2022-09-13T01:08:00;98980.00;;;18.78;92.87
24858;BME280;12935;50.782;6.074;2022-09-13T01:10:26;98981.84;;;18.81;92.04
24858;BME280;12935;50.782;6.074;2022-09-13T01:13:15;98981.38;;;18.74;91.75
24858;BME280;12935;50.782;6.074;2022-09-13T01:15:42;98977.53;;;18.71;92.25
24858;BME280;12935;50.782;6.074;2022-09-13T01:18:09;98974.63;;;18.66;91.55
24858;BME280;12935;50.782;6.074;2022-09-13T01:23:41;98977.81;;;18.73;89.47
24858;BME280;12935;50.782;6.074;2022-09-13T01:34:38;98967.06;;;18.57;90.45
24858;BME280;12935;50.782;6.074;2022-09-13T01:40:02;98964.16;;;18.61;89.99
24858;BME280;12935;50.782;6.074;2022-09-13T01:45:11;98956.00;;;18.57;90.31
24858;BME280;12935;50.782;6.074;2022-09-13T01:47:49;98951.09;;;18.61;88.36
24858;BME280;12935;50.782;6.074;2022-09-13T01:52:53;98940.19;;;18.67;88.45
24858;BME280;12935;50.782;6.074;2022-09-13T02:00:48;98933.53;;;18.73;88.96
24858;BME280;12935;50.782;6.074;2022-09-13T02:03:20;98930.78;;;18.73;89.60
24858;BME280;12935;50.782;6.074;2022-09-13T02:05:54;98934.16;;;18.77;90.70
24858;BME280;12935;50.782;6.074;2022-09-13T02:08:27;98928.47;;;18.81;89.53
24858;BME280;12935;50.782;6.074;2022-09-13T02:11:00;98926.44;;;18.90;84.96
24858;BME280;12935;50.782;6.074;2022-09-13T02:13:34;98914.91;;;19.01;84.23
24858;BME280;12935;50.782;6.074;2022-09-13T02:16:07;98919.81;;;19.06;84.04
24858;BME280;12935;50.782;6.074;2022-09-13T02:18:37;98914.00;;;19.04;83.82
24858;BME280;12935;50.782;6.074;2022-09-13T02:21:11;98916.88;;;19.10;82.65
24858;BME280;12935;50.782;6.074;2022-09-13T02:23:47;98914.41;;;19.12;82.96
24858;BME280;12935;50.782;6.074;2022-09-13T02:26:14;98915.50;;;19.14;82.80
24858;BME280;12935;50.782;6.074;2022-09-13T02:28:46;98914.25;;;19.15;83.07
24858;BME280;12935;50.782;6.074;2022-09-13T02:31:17;98910.38;;;19.31;80.06
24858;BME280;12935;50.782;6.074;2022-09-13T02:33:50;98902.00;;;19.40;79.01
24858;BME280;12935;50.782;6.074;2022-09-13T02:36:28;98902.78;;;19.50;76.46
24858;BME280;12935;50.782;6.074;2022-09-13T02:39:12;98903.50;;;19.59;74.40
24858;BME280;12935;50.782;6.074;2022-09-13T02:41:47;98891.13;;;19.70;75.61
24858;BME280;12935;50.782;6.074;2022-09-13T02:44:24;98885.06;;;19.80;73.29
24858;BME280;12935;50.782;6.074;2022-09-13T02:46:58;98869.78;;;19.85;70.87
24858;BME280;12935;50.782;6.074;2022-09-13T02:49:54;98885.53;;;20.03;68.77
24858;BME280;12935;50.782;6.074;2022-09-13T02:55:25;98871.78;;;20.08;68.23
24858;BME280;12935;50.782;6.074;2022-09-13T03:00:39;98881.22;;;20.25;68.91
24858;BME280;12935;50.782;6.074;2022-09-13T03:03:09;98883.97;;;20.25;70.65
24858;BME280;12935;50.782;6.074;2022-09-13T03:05:35;98883.09;;;20.19;71.79
24858;BME280;12935;50.782;6.074;2022-09-13T03:08:01;98883.28;;;20.16;73.12
24858;BME280;12935;50.782;6.074;2022-09-13T03:10:38;98886.53;;;20.14;73.55
24858;BME280;12935;50.782;6.074;2022-09-13T03:13:23;98887.72;;;19.99;75.99
24858;BME280;12935;50.782;6.074;2022-09-13T03:18:51;98876.97;;;19.91;76.12
24858;BME280;12935;50.782;6.074;2022-09-13T03:24:11;98875.91;;;19.89;74.73
24858;BME280;12935;50.782;6.074;2022-09-13T03:26:47;98882.69;;;19.88;74.99
24858;BME280;12935;50.782;6.074;2022-09-13T03:29:30;98889.94;;;19.85;75.00
24858;BME280;12935;50.782;6.074;2022-09-13T03:32:29;98893.38;;;19.80;75.16
24858;BME280;12935;50.782;6.074;2022-09-13T03:38:00;98910.47;;;19.46;80.51
24858;BME280;12935;50.782;6.074;2022-09-13T03:45:32;98913.69;;;19.44;81.03
24858;BME280;12935;50.782;6.074;2022-09-13T03:47:59;98928.75;;;19.52;81.11
24858;BME280;12935;50.782;6.074;2022-09-13T03:50:25;98926.16;;;19.49;81.79
24858;BME280;12935;50.782;6.074;2022-09-13T03:52:57;98925.09;;;19.37;84.26
24858;BME280;12935;50.782;6.074;2022-09-13T03:55:24;98920.38;;;19.28;84.10
24858;BME280;12935;50.782;6.074;2022-09-13T03:57:50;98922.38;;;19.28;84.63
24858;BME280;12935;50.782;6.074;2022-09-13T04:00:16;98937.00;;;19.28;84.64
24858;BME280;12935;50.782;6.074;2022-09-13T04:02:42;98933.00;;;19.30;85.18
24858;BME280;12935;50.782;6.074;2022-09-13T04:05:08;98920.22;;;19.23;85.10
24858;BME280;12935;50.782;6.074;2022-09-13T04:07:33;98937.00;;;19.28;84.65
24858;BME280;12935;50.782;6.074;2022-09-13T04:09:58;98930.53;;;19.22;85.52
24858;BME280;12935;50.782;6.074;2022-09-13T04:12:24;98949.75;;;19.26;85.92
24858;BME280;12935;50.782;6.074;2022-09-13T04:14:50;98940.38;;;19.23;85.87
24858;BME280;12935;50.782;6.074;2022-09-13T04:17:16;98928.41;;;19.17;86.15
24858;BME280;12935;50.782;6.074;2022-09-13T04:19:42;98935.03;;;19.11;86.06
24858;BME280;12935;50.782;6.074;2022-09-13T04:22:09;98940.13;;;19.12;86.43
24858;BME280;12935;50.782;6.074;2022-09-13T04:24:34;98938.72;;;19.17;87.31
24858;BME280;12935;50.782;6.074;2022-09-13T04:27:00;98939.50;;;19.17;87.47
24858;BME280;12935;50.782;6.074;2022-09-13T04:29:26;98942.38;;;19.23;87.63
24858;BME280;12935;50.782;6.074;2022-09-13T04:31:52;98946.09;;;19.20;87.49
24858;BME280;12935;50.782;6.074;2022-09-13T04:34:18;98936.25;;;19.10;88.74
24858;BME280;12935;50.782;6.074;2022-09-13T04:36:44;98940.88;;;19.13;90.03
24858;BME280;12935;50.782;6.074;2022-09-13T04:39:10;98936.09;;;19.13;90.62
24858;BME280;12935;50.782;6.074;2022-09-13T04:41:38;98946.41;;;19.13;92.37
24858;BME280;12935;50.782;6.074;2022-09-13T04:44:03;98940.72;;;19.16;91.22
24858;BME280;12935;50.782;6.074;2022-09-13T04:46:28;98923.50;;;19.12;91.28
24858;BME280;12935;50.782;6.074;2022-09-13T04:48:54;98940.53;;;19.29;90.24
24858;BME280;12935;50.782;6.074;2022-09-13T04:51:20;98941.13;;;19.33;89.01
24858;BME280;12935;50.782;6.074;2022-09-13T04:53:53;98933.72;;;19.39;87.17
24858;BME280;12935;50.782;6.074;2022-09-13T04:56:19;98911.38;;;19.52;83.29
24858;BME280;12935;50.782;6.074;2022-09-13T04:58:45;98928.88;;;19.67;80.85
24858;BME280;12935;50.782;6.074;2022-09-13T05:01:10;98914.53;;;19.69;79.55
24858;BME280;12935;50.782;6.074;2022-09-13T05:03:36;98914.66;;;19.74;79.86
24858;BME280;12935;50.782;6.074;2022-09-13T05:06:11;98920.34;;;19.80;80.44
24858;BME280;12935;50.782;6.074;2022-09-13T05:08:37;98920.50;;;19.76;80.45
24858;BME280;12935;50.782;6.074;2022-09-13T05:11:03;98925.41;;;19.81;80.63
24858;BME280;12935;50.782;6.074;2022-09-13T05:13:28;98909.25;;;19.80;80.25
24858;BME280;12935;50.782;6.074;2022-09-13T05:15:59;98919.03;;;19.90;80.14
24858;BME280;12935;50.782;6.074;2022-09-13T05:18:28;98932.13;;;19.89;79.75
24858;BME280;12935;50.782;6.074;2022-09-13T05:20:54;98928.59;;;19.89;79.92
24858;BME280;12935;50.782;6.074;2022-09-13T05:23:20;98934.44;;;19.91;79.90
24858;BME280;12935;50.782;6.074;2022-09-13T05:26:03;98923.81;;;19.89;79.39
24858;BME280;12935;50.782;6.074;2022-09-13T05:28:31;98932.22;;;20.04;78.68
24858;BME280;12935;50.782;6.074;2022-09-13T05:31:05;98935.56;;;20.08;77.16
24858;BME280;12935;50.782;6.074;2022-09-13T05:33:33;98925.88;;;20.04;76.35
24858;BME280;12935;50.782;6.074;2022-09-13T05:35:59;98926.13;;;20.15;76.24
24858;BME280;12935;50.782;6.074;2022-09-13T05:38:24;98923.84;;;20.13;76.29
24858;BME280;12935;50.782;6.074;2022-09-13T05:40:54;98929.78;;;20.21;76.08
24858;BME280;12935;50.782;6.074;2022-09-13T05:43:22;98915.91;;;20.21;77.09
24858;BME280;12935;50.782;6.074;2022-09-13T05:45:47;98935.00;;;20.28;77.79
24858;BME280;12935;50.782;6.074;2022-09-13T05:48:12;98919.59;;;20.27;79.20
24858;BME280;12935;50.782;6.074;2022-09-13T05:50:38;98923.28;;;20.24;80.14
24858;BME280;12935;50.782;6.074;2022-09-13T05:53:03;98926.53;;;20.22;81.39
24858;BME280;12935;50.782;6.074;2022-09-13T05:55:28;98936.09;;;20.21;82.43
24858;BME280;12935;50.782;6.074;2022-09-13T05:57:55;98936.28;;;20.18;83.36
24858;BME280;12935;50.782;6.074;2022-09-13T06:00:20;98936.75;;;20.16;84.90
24858;BME280;12935;50.782;6.074;2022-09-13T06:02:45;98927.84;;;20.12;83.20
24858;BME280;12935;50.782;6.074;2022-09-13T06:05:11;98933.88;;;20.11;83.16
24858;BME280;12935;50.782;6.074;2022-09-13T06:07:39;98939.59;;;20.07;82.86
24858;BME280;12935;50.782;6.074;2022-09-13T06:10:06;98939.88;;;20.09;82.76
24858;BME280;12935;50.782;6.074;2022-09-13T06:12:32;98945.44;;;20.09;83.66
24858;BME280;12935;50.782;6.074;2022-09-13T06:14:57;98950.16;;;20.18;83.71
24858;BME280;12935;50.782;6.074;2022-09-13T06:17:22;98951.75;;;20.10;84.99
24858;BME280;12935;50.782;6.074;2022-09-13T06:19:47;98951.59;;;20.13;82.62
24858;BME280;12935;50.782;6.074;2022-09-13T06:22:13;98958.66;;;20.14;83.45
24858;BME280;12935;50.782;6.074;2022-09-13T06:24:38;98945.84;;;20.17;84.06
24858;BME280;12935;50.782;6.074;2022-09-13T06:27:03;98945.72;;;20.11;85.96
24858;BME280;12935;50.782;6.074;2022-09-13T06:29:29;98945.53;;;20.15;86.61
24858;BME280;12935;50.782;6.074;2022-09-13T06:31:54;98947.66;;;20.20;86.71
24858;BME280;12935;50.782;6.074;2022-09-13T06:34:19;98942.13;;;20.20;86.54
24858;BME280;12935;50.782;6.074;2022-09-13T06:36:45;98955.94;;;20.29;84.76
24858;BME280;12935;50.782;6.074;2022-09-13T06:39:10;98952.28;;;20.23;86.72
24858;BME280;12935;50.782;6.074;2022-09-13T06:41:35;98947.19;;;20.21;88.35
24858;BME280;12935;50.782;6.074;2022-09-13T06:44:02;98945.97;;;20.22;91.64
24858;BME280;12935;50.782;6.074;2022-09-13T06:46:29;98940.53;;;20.28;87.90
24858;BME280;12935;50.782;6.074;2022-09-13T06:48:58;98944.19;;;20.34;86.15
24858;BME280;12935;50.782;6.074;2022-09-13T06:51:24;98948.75;;;20.46;83.66
24858;BME280;12935;50.782;6.074;2022-09-13T06:53:51;98949.94;;;20.54;81.38
24858;BME280;12935;50.782;6.074;2022-09-13T06:56:22;98955.28;;;20.58;81.21
24858;BME280;12935;50.782;6.074;2022-09-13T06:58:50;98959.31;;;20.57;81.38
24858;BME280;12935;50.782;6.074;2022-09-13T07:01:22;98954.81;;;20.59;79.69
24858;BME280;12935;50.782;6.074;2022-09-13T07:03:50;98945.44;;;20.57;80.66
24858;BME280;12935;50.782;6.074;2022-09-13T07:06:17;98950.59;;;20.64;80.50
24858;BME280;12935;50.782;6.074;2022-09-13T07:08:43;98957.22;;;20.66;78.19
24858;BME280;12935;50.782;6.074;2022-09-13T07:11:10;98941.34;;;20.67;77.40
24858;BME280;12935;50.782;6.074;2022-09-13T07:13:36;98938.38;;;20.71;77.28
24858;BME280;12935;50.782;6.074;2022-09-13T07:16:03;98927.16;;;20.65;77.18
24858;BME280;12935;50.782;6.074;2022-09-13T07:18:30;98934.25;;;20.66;77.76
24858;BME280;12935;50.782;6.074;2022-09-13T07:21:06;98924.84;;;20.63;77.47
24858;BME280;12935;50.782;6.074;2022-09-13T07:23:34;98914.13;;;20.56;77.37
24858;BME280;12935;50.782;6.074;2022-09-13T07:26:01;98947.34;;;20.65;77.44
24858;BME280;12935;50.782;6.074;2022-09-13T07:28:47;98951.31;;;20.74;77.27
24858;BME280;12935;50.782;6.074;2022-09-13T07:31:24;98949.78;;;20.73;78.02
24858;BME280;12935;50.782;6.074;2022-09-13T07:33:55;98937.44;;;20.74;77.82
24858;BME280;12935;50.782;6.074;2022-09-13T07:36:21;98934.53;;;20.68;77.92
24858;BME280;12935;50.782;6.074;2022-09-13T07:38:47;98933.13;;;20.87;78.09
24858;BME280;12935;50.782;6.074;2022-09-13T07:41:14;98923.56;;;20.88;78.08
24858;BME280;12935;50.782;6.074;2022-09-13T07:43:40;98937.06;;;20.95;77.90
24858;BME280;12935;50.782;6.074;2022-09-13T07:46:08;98938.13;;;20.98;78.99
24858;BME280;12935;50.782;6.074;2022-09-13T07:48:36;98936.28;;;21.10;79.92
24858;BME280;12935;50.782;6.074;2022-09-13T07:53:29;98936.28;;;21.10;78.00
24858;BME280;12935;50.782;6.074;2022-09-13T07:56:07;98930.97;;;21.21;77.45
24858;BME280;12935;50.782;6.074;2022-09-13T07:58:35;98946.28;;;21.31;77.14
24858;BME280;12935;50.782;6.074;2022-09-13T08:01:06;98939.78;;;21.34;77.06
24858;BME280;12935;50.782;6.074;2022-09-13T08:03:33;98934.19;;;21.49;76.24
24858;BME280;12935;50.782;6.074;2022-09-13T08:05:59;98938.97;;;21.63;75.41
24858;BME280;12935;50.782;6.074;2022-09-13T08:08:25;98937.81;;;21.69;75.65
24858;BME280;12935;50.782;6.074;2022-09-13T08:10:50;98946.16;;;21.69;75.71
24858;BME280;12935;50.782;6.074;2022-09-13T08:13:16;98943.16;;;21.73;75.65
24858;BME280;12935;50.782;6.074;2022-09-13T08:15:42;98942.59;;;21.69;76.45
24858;BME280;12935;50.782;6.074;2022-09-13T08:18:07;98938.00;;;21.66;79.27
24858;BME280;12935;50.782;6.074;2022-09-13T08:20:38;98943.91;;;21.74;77.44
24858;BME280;12935;50.782;6.074;2022-09-13T08:23:05;98955.78;;;21.89;77.04
24858;BME280;12935;50.782;6.074;2022-09-13T08:25:32;98946.16;;;22.04;75.96
24858;BME280;12935;50.782;6.074;2022-09-13T08:27:59;98950.00;;;21.92;75.87
24858;BME280;12935;50.782;6.074;2022-09-13T08:30:25;98952.50;;;21.90;76.27
24858;BME280;12935;50.782;6.074;2022-09-13T08:32:57;98949.66;;;21.85;76.92
24858;BME280;12935;50.782;6.074;2022-09-13T08:35:22;98937.63;;;21.93;76.33
24858;BME280;12935;50.782;6.074;2022-09-13T08:37:48;98950.56;;;22.11;75.78
24858;BME280;12935;50.782;6.074;2022-09-13T08:40:14;98947.81;;;22.31;74.77
24858;BME280;12935;50.782;6.074;2022-09-13T08:45:15;98941.25;;;22.34;74.07
24858;BME280;12935;50.782;6.074;2022-09-13T08:48:02;98952.25;;;22.44;73.40
24858;BME280;12935;50.782;6.074;2022-09-13T08:50:31;98964.84;;;22.39;73.42
24858;BME280;12935;50.782;6.074;2022-09-13T08:58:34;98979.53;;;22.19;73.42
24858;BME280;12935;50.782;6.074;2022-09-13T09:01:19;98982.56;;;22.21;74.70
24858;BME280;12935;50.782;6.074;2022-09-13T09:04:51;98979.03;;;22.41;74.51
24858;BME280;12935;50.782;6.074;2022-09-13T09:06:43;98975.69;;;22.57;72.72
24858;BME280;12935;50.782;6.074;2022-09-13T09:09:17;98977.03;;;22.62;73.77
24858;BME280;12935;50.782;6.074;2022-09-13T09:11:55;98976.19;;;22.56;73.31
24858;BME280;12935;50.782;6.074;2022-09-13T09:14:30;98982.38;;;22.65;74.54
24858;BME280;12935;50.782;6.074;2022-09-13T09:17:02;98989.91;;;22.80;74.04
24858;BME280;12935;50.782;6.074;2022-09-13T09:19:33;98978.22;;;23.01;72.42
24858;BME280;12935;50.782;6.074;2022-09-13T09:22:08;98981.19;;;23.44;70.62
24858;BME280;12935;50.782;6.074;2022-09-13T09:24:36;98991.63;;;23.81;68.49
24858;BME280;12935;50.782;6.074;2022-09-13T09:27:15;98988.00;;;24.06;67.51
24858;BME280;12935;50.782;6.074;2022-09-13T09:29:41;98987.50;;;24.07;66.60
24858;BME280;12935;50.782;6.074;2022-09-13T09:32:36;98994.53;;;23.60;66.30
24858;BME280;12935;50.782;6.074;2022-09-13T09:41:02;98979.41;;;23.47;67.50
24858;BME280;12935;50.782;6.074;2022-09-13T09:43:34;98980.84;;;23.62;68.17
24858;BME280;12935;50.782;6.074;2022-09-13T09:46:04;98989.38;;;23.85;66.64
24858;BME280;12935;50.782;6.074;2022-09-13T09:48:39;98986.63;;;23.90;66.68
24858;BME280;12935;50.782;6.074;2022-09-13T09:51:07;98997.69;;;23.79;68.27
24858;BME280;12935;50.782;6.074;2022-09-13T09:53:38;98987.41;;;23.91;67.82
24858;BME280;12935;50.782;6.074;2022-09-13T09:56:32;98988.28;;;24.08;66.42
24858;BME280;12935;50.782;6.074;2022-09-13T09:58:57;98976.91;;;24.17;66.21
24858;BME280;12935;50.782;6.074;2022-09-13T10:01:33;98985.28;;;24.17;66.52
24858;BME280;12935;50.782;6.074;2022-09-13T10:04:18;98974.09;;;24.17;66.54
24858;BME280;12935;50.782;6.074;2022-09-13T10:06:44;98971.53;;;24.13;65.41
24858;BME280;12935;50.782;6.074;2022-09-13T10:11:52;98966.50;;;24.18;66.53
24858;BME280;12935;50.782;6.074;2022-09-13T10:17:12;98963.88;;;24.03;68.03
24858;BME280;12935;50.782;6.074;2022-09-13T10:19:39;98955.25;;;24.01;68.91
24858;BME280;12935;50.782;6.074;2022-09-13T10:22:09;98950.19;;;24.53;67.18
24858;BME280;12935;50.782;6.074;2022-09-13T10:24:35;98939.69;;;25.02;64.42
24858;BME280;12935;50.782;6.074;2022-09-13T10:27:01;98937.13;;;25.09;62.27
24858;BME280;12935;50.782;6.074;2022-09-13T10:29:29;98939.84;;;24.87;62.64
24858;BME280;12935;50.782;6.074;2022-09-13T10:31:55;98934.25;;;24.70;63.22
24858;BME280;12935;50.782;6.074;2022-09-13T10:34:26;98934.00;;;24.79;63.37
24858;BME280;12935;50.782;6.074;2022-09-13T10:39:20;98932.38;;;24.39;63.38
24858;BME280;12935;50.782;6.074;2022-09-13T10:42:06;98941.34;;;24.66;63.56
24858;BME280;12935;50.782;6.074;2022-09-13T10:47:05;98938.53;;;24.66;62.21
24858;BME280;12935;50.782;6.074;2022-09-13T10:49:47;98923.31;;;24.78;62.11
24858;BME280;12935;50.782;6.074;2022-09-13T10:52:41;98926.38;;;24.80;61.57
24858;BME280;12935;50.782;6.074;2022-09-13T10:57:44;98916.75;;;24.92;62.11
24858;BME280;12935;50.782;6.074;2022-09-13T11:00:11;98918.59;;;25.40;60.48
24858;BME280;12935;50.782;6.074;2022-09-13T11:02:52;98914.25;;;25.56;58.76
24858;BME280;12935;50.782;6.074;2022-09-13T11:30:15;98897.19;;;26.50;53.24
24858;BME280;12935;50.782;6.074;2022-09-13T11:33:02;98894.78;;;26.13;54.94
24858;BME280;12935;50.782;6.074;2022-09-13T11:35:46;98895.13;;;25.82;57.07
24858;BME280;12935;50.782;6.074;2022-09-13T11:38:35;98907.13;;;25.43;55.50
24858;BME280;12935;50.782;6.074;2022-09-13T11:47:07;98902.31;;;25.38;56.63
24858;BME280;12935;50.782;6.074;2022-09-13T11:52:49;98897.72;;;25.58;55.13
24858;BME280;12935;50.782;6.074;2022-09-13T11:55:21;98892.38;;;25.54;54.99
24858;BME280;12935;50.782;6.074;2022-09-13T11:57:56;98898.75;;;25.49;55.18
24858;BME280;12935;50.782;6.074;2022-09-13T12:00:26;98892.13;;;25.52;55.35
24858;BME280;12935;50.782;6.074;2022-09-13T12:05:41;98896.09;;;26.12;54.31
24858;BME280;12935;50.782;6.074;2022-09-13T12:10:45;98883.16;;;26.56;53.70
24858;BME280;12935;50.782;6.074;2022-09-13T12:13:20;98869.84;;;26.68;52.78
24858;BME280;12935;50.782;6.074;2022-09-13T12:15:51;98877.00;;;26.63;53.42
24858;BME280;12935;50.782;6.074;2022-09-13T12:18:23;98865.97;;;26.30;54.73
24858;BME280;12935;50.782;6.074;2022-09-13T12:21:07;98870.97;;;25.90;57.42
24858;BME280;12935;50.782;6.074;2022-09-13T12:28:56;98885.88;;;26.73;56.37
24858;BME280;12935;50.782;6.074;2022-09-13T12:31:28;98877.28;;;27.31;52.96
24858;BME280;12935;50.782;6.074;2022-09-13T12:33:55;98879.50;;;28.54;50.17
24858;BME280;12935;50.782;6.074;2022-09-13T12:44:48;98877.84;;;28.83;46.60
24858;BME280;12935;50.782;6.074;2022-09-13T12:47:40;98870.19;;;28.03;48.17
24858;BME280;12935;50.782;6.074;2022-09-13T12:50:20;98871.88;;;27.38;48.53
24858;BME280;12935;50.782;6.074;2022-09-13T13:01:20;98858.81;;;27.71;47.40
24858;BME280;12935;50.782;6.074;2022-09-13T13:04:26;98843.66;;;28.60;46.26
24858;BME280;12935;50.782;6.074;2022-09-13T13:07:05;98853.25;;;29.02;45.25
24858;BME280;12935;50.782;6.074;2022-09-13T13:09:42;98862.03;;;28.23;45.97
24858;BME280;12935;50.782;6.074;2022-09-13T13:12:10;98850.84;;;26.90;47.18
24858;BME280;12935;50.782;6.074;2022-09-13T13:19:58;98851.06;;;25.99;49.84
24858;BME280;12935;50.782;6.074;2022-09-13T13:25:34;98846.50;;;25.96;50.84
24858;BME280;12935;50.782;6.074;2022-09-13T13:31:06;98843.72;;;25.96;49.45
24858;BME280;12935;50.782;6.074;2022-09-13T13:33:46;98852.56;;;26.06;49.64
24858;BME280;12935;50.782;6.074;2022-09-13T13:36:23;98843.84;;;26.20;49.76
24858;BME280;12935;50.782;6.074;2022-09-13T13:38:51;98844.81;;;26.34;49.83
24858;BME280;12935;50.782;6.074;2022-09-13T13:41:48;98841.75;;;26.38;49.46
24858;BME280;12935;50.782;6.074;2022-09-13T13:46:52;98839.66;;;25.92;52.98
24858;BME280;12935;50.782;6.074;2022-09-13T13:57:21;98845.38;;;25.25;55.52
24858;BME280;12935;50.782;6.074;2022-09-13T13:59:55;98851.22;;;24.99;55.51
24858;BME280;12935;50.782;6.074;2022-09-13T14:02:30;98846.91;;;24.98;56.11
24858;BME280;12935;50.782;6.074;2022-09-13T14:10:10;98836.50;;;25.15;55.68
24858;BME280;12935;50.782;6.074;2022-09-13T14:15:49;98836.44;;;24.93;56.40
24858;BME280;12935;50.782;6.074;2022-09-13T14:23:49;98836.44;;;24.76;58.10
24858;BME280;12935;50.782;6.074;2022-09-13T14:26:14;98835.13;;;24.43;59.20
24858;BME280;12935;50.782;6.074;2022-09-13T14:28:40;98837.19;;;24.54;58.87
24858;BME280;12935;50.782;6.074;2022-09-13T14:31:06;98829.75;;;24.29;59.47
24858;BME280;12935;50.782;6.074;2022-09-13T14:33:34;98833.81;;;24.28;59.29
24858;BME280;12935;50.782;6.074;2022-09-13T14:36:06;98830.31;;;24.38;58.56
24858;BME280;12935;50.782;6.074;2022-09-13T14:38:34;98829.56;;;24.49;58.17
24858;BME280;12935;50.782;6.074;2022-09-13T14:41:18;98837.66;;;24.36;60.06
24858;BME280;12935;50.782;6.074;2022-09-13T14:43:45;98830.53;;;24.24;59.91
24858;BME280;12935;50.782;6.074;2022-09-13T14:46:19;98839.56;;;24.13;60.05
24858;BME280;12935;50.782;6.074;2022-09-13T14:51:25;98839.59;;;24.19;60.16
24858;BME280;12935;50.782;6.074;2022-09-13T14:53:56;98845.41;;;24.09;60.53
24858;BME280;12935;50.782;6.074;2022-09-13T14:56:33;98843.81;;;23.92;61.04
24858;BME280;12935;50.782;6.074;2022-09-13T14:59:04;98845.50;;;23.78;61.25
24858;BME280;12935;50.782;6.074;2022-09-13T15:01:33;98841.41;;;23.68;61.43
24858;BME280;12935;50.782;6.074;2022-09-13T15:04:00;98854.72;;;23.90;61.08
24858;BME280;12935;50.782;6.074;2022-09-13T15:06:29;98845.59;;;23.95;61.29
24858;BME280;12935;50.782;6.074;2022-09-13T15:09:25;98849.41;;;23.92;65.53
24858;BME280;12935;50.782;6.074;2022-09-13T15:14:34;98842.00;;;23.83;68.24
24858;BME280;12935;50.782;6.074;2022-09-13T15:22:16;98849.13;;;23.47;72.55
24858;BME280;12935;50.782;6.074;2022-09-13T15:24:49;98848.50;;;23.32;77.38
24858;BME280;12935;50.782;6.074;2022-09-13T15:27:18;98848.78;;;23.02;84.75
24858;BME280;12935;50.782;6.074;2022-09-13T15:30:04;98861.97;;;23.02;82.62
24858;BME280;12935;50.782;6.074;2022-09-13T15:32:42;98856.59;;;22.98;85.16
24858;BME280;12935;50.782;6.074;2022-09-13T15:35:22;98861.88;;;22.91;93.39
24858;BME280;12935;50.782;6.074;2022-09-13T15:38:00;98859.97;;;22.77;93.18
24858;BME280;12935;50.782;6.074;2022-09-13T15:40:27;98863.72;;;22.48;100.00
24858;BME280;12935;50.782;6.074;2022-09-13T15:42:53;98859.00;;;22.33;100.00
24858;BME280;12935;50.782;6.074;2022-09-13T15:45:20;98860.56;;;22.14;100.00
24858;BME280;12935;50.782;6.074;2022-09-13T15:47:47;98858.66;;;22.05;100.00
24858;BME280;12935;50.782;6.074;2022-09-13T15:50:28;98866.31;;;22.11;100.00
24858;BME280;12935;50.782;6.074;2022-09-13T15:52:56;98866.06;;;21.94;100.00
24858;BME280;12935;50.782;6.074;2022-09-13T15:55:22;98874.78;;;21.81;100.00
24858;BME280;12935;50.782;6.074;2022-09-13T15:57:48;98864.66;;;21.63;100.00
24858;BME280;12935;50.782;6.074;2022-09-13T16:00:25;98858.75;;;21.56;100.00
24858;BME280;12935;50.782;6.074;2022-09-13T16:02:52;98862.91;;;21.31;100.00
24858;BME280;12935;50.782;6.074;2022-09-13T16:05:18;98862.28;;;21.21;100.00
24858;BME280;12935;50.782;6.074;2022-09-13T16:07:43;98861.03;;;21.08;100.00
24858;BME280;12935;50.782;6.074;2022-09-13T16:10:20;98866.00;;;20.89;100.00
24858;BME280;12935;50.782;6.074;2022-09-13T16:12:46;98862.06;;;20.81;100.00
24858;BME280;12935;50.782;6.074;2022-09-13T16:15:12;98855.66;;;20.60;100.00
24858;BME280;12935;50.782;6.074;2022-09-13T16:17:38;98857.75;;;20.65;100.00
24858;BME280;12935;50.782;6.074;2022-09-13T16:20:04;98853.13;;;20.47;100.00
24858;BME280;12935;50.782;6.074;2022-09-13T16:22:32;98850.56;;;20.44;100.00